sensor_id;sensor_type;location;lat;lon;timestamp;P1;durP1;ratioP1;P2;durP2;ratioP2
70733;SDS011;58320;48.804;9.252;2022-09-16T00:00:18;9.60;;;4.95;;
70733;SDS011;58320;48.804;9.252;2022-09-16T00:02:45;9.57;;;6.18;;
70733;SDS011;58320;48.804;9.252;2022-09-16T00:05:11;11.35;;;6.70;;
70733;SDS011;58320;48.804;9.252;2022-09-16T00:07:37;11.13;;;6.87;;
70733;SDS011;58320;48.804;9.252;2022-09-16T00:10:03;12.10;;;6.32;;
70733;SDS011;58320;48.804;9.252;2022-09-16T00:12:30;9.20;;;5.38;;
70733;SDS011;58320;48.804;9.252;2022-09-16T00:14:56;14.05;;;6.30;;
70733;SDS011;58320;48.804;9.252;2022-09-16T00:17:22;8.70;;;5.33;;
70733;SDS011;58320;48.804;9.252;2022-09-16T00:19:48;8.85;;;5.22;;
70733;SDS011;58320;48.804;9.252;2022-09-16T00:22:15;7.88;;;5.32;;
70733;SDS011;58320;48.804;9.252;2022-09-16T00:24:42;12.05;;;4.90;;
70733;SDS011;58320;48.804;9.252;2022-09-16T00:27:08;11.67;;;5.63;;
70733;SDS011;58320;48.804;9.252;2022-09-16T00:29:34;7.45;;;4.15;;
70733;SDS011;58320;48.804;9.252;2022-09-16T00:32:00;8.68;;;4.60;;
70733;SDS011;58320;48.804;9.252;2022-09-16T00:34:26;10.48;;;4.78;;
70733;SDS011;58320;48.804;9.252;2022-09-16T00:36:52;7.47;;;5.50;;
70733;SDS011;58320;48.804;9.252;2022-09-16T00:39:17;6.47;;;4.70;;
70733;SDS011;58320;48.804;9.252;2022-09-16T00:41:43;9.33;;;5.03;;
70733;SDS011;58320;48.804;9.252;2022-09-16T00:47:29;8.60;;;5.22;;
70733;SDS011;58320;48.804;9.252;2022-09-16T00:50:03;8.50;;;4.40;;
70733;SDS011;58320;48.804;9.252;2022-09-16T00:52:37;7.80;;;4.60;;
70733;SDS011;58320;48.804;9.252;2022-09-16T00:55:05;8.27;;;5.10;;
70733;SDS011;58320;48.804;9.252;2022-09-16T00:57:34;9.23;;;5.47;;
70733;SDS011;58320;48.804;9.252;2022-09-16T01:00:02;7.63;;;4.40;;
70733;SDS011;58320;48.804;9.252;2022-09-16T01:02:32;9.30;;;4.90;;
70733;SDS011;58320;48.804;9.252;2022-09-16T01:04:59;8.33;;;5.33;;
70733;SDS011;58320;48.804;9.252;2022-09-16T01:07:32;10.40;;;5.80;;
70733;SDS011;58320;48.804;9.252;2022-09-16T01:10:04;7.47;;;5.00;;
70733;SDS011;58320;48.804;9.252;2022-09-16T01:12:30;10.80;;;5.82;;
70733;SDS011;58320;48.804;9.252;2022-09-16T01:14:57;9.90;;;5.80;;
70733;SDS011;58320;48.804;9.252;2022-09-16T01:20:57;11.38;;;5.50;;
70733;SDS011;58320;48.804;9.252;2022-09-16T01:33:19;10.90;;;6.10;;
70733;SDS011;58320;48.804;9.252;2022-09-16T01:35:52;11.45;;;6.15;;
70733;SDS011;58320;48.804;9.252;2022-09-16T01:39:00;10.30;;;6.22;;
70733;SDS011;58320;48.804;9.252;2022-09-16T01:46:42;9.53;;;5.50;;
70733;SDS011;58320;48.804;9.252;2022-09-16T01:52:45;11.63;;;5.82;;
70733;SDS011;58320;48.804;9.252;2022-09-16T01:55:34;11.25;;;6.53;;
70733;SDS011;58320;48.804;9.252;2022-09-16T01:58:27;12.70;;;6.25;;
70733;SDS011;58320;48.804;9.252;2022-09-16T02:01:05;10.10;;;5.33;;
70733;SDS011;58320;48.804;9.252;2022-09-16T02:03:41;10.80;;;5.78;;
70733;SDS011;58320;48.804;9.252;2022-09-16T02:06:13;12.73;;;6.25;;
70733;SDS011;58320;48.804;9.252;2022-09-16T02:11:22;11.95;;;6.38;;
70733;SDS011;58320;48.804;9.252;2022-09-16T02:14:00;8.07;;;5.20;;
70733;SDS011;58320;48.804;9.252;2022-09-16T02:16:42;9.02;;;4.82;;
70733;SDS011;58320;48.804;9.252;2022-09-16T02:19:19;9.57;;;4.72;;
70733;SDS011;58320;48.804;9.252;2022-09-16T02:21:51;12.13;;;4.90;;
70733;SDS011;58320;48.804;9.252;2022-09-16T02:24:20;7.70;;;4.95;;
70733;SDS011;58320;48.804;9.252;2022-09-16T02:26:53;7.40;;;4.30;;
70733;SDS011;58320;48.804;9.252;2022-09-16T02:29:25;7.97;;;4.63;;
70733;SDS011;58320;48.804;9.252;2022-09-16T02:32:01;8.13;;;4.80;;
70733;SDS011;58320;48.804;9.252;2022-09-16T02:34:37;7.63;;;4.68;;
70733;SDS011;58320;48.804;9.252;2022-09-16T02:37:14;9.00;;;5.05;;
70733;SDS011;58320;48.804;9.252;2022-09-16T02:39:48;7.60;;;4.63;;
70733;SDS011;58320;48.804;9.252;2022-09-16T02:42:19;8.23;;;4.32;;
70733;SDS011;58320;48.804;9.252;2022-09-16T02:44:45;14.63;;;5.78;;
70733;SDS011;58320;48.804;9.252;2022-09-16T02:52:58;7.90;;;3.47;;
70733;SDS011;58320;48.804;9.252;2022-09-16T02:58:14;7.57;;;3.47;;
70733;SDS011;58320;48.804;9.252;2022-09-16T03:00:42;9.00;;;3.30;;
70733;SDS011;58320;48.804;9.252;2022-09-16T03:03:12;6.03;;;3.10;;
70733;SDS011;58320;48.804;9.252;2022-09-16T03:08:32;8.00;;;3.63;;
70733;SDS011;58320;48.804;9.252;2022-09-16T03:11:02;6.20;;;2.90;;
70733;SDS011;58320;48.804;9.252;2022-09-16T03:26:09;7.38;;;2.92;;
70733;SDS011;58320;48.804;9.252;2022-09-16T03:31:50;5.60;;;3.33;;
70733;SDS011;58320;48.804;9.252;2022-09-16T03:34:53;5.72;;;2.58;;
70733;SDS011;58320;48.804;9.252;2022-09-16T03:37:37;4.53;;;3.00;;
70733;SDS011;58320;48.804;9.252;2022-09-16T03:40:08;4.57;;;2.38;;
70733;SDS011;58320;48.804;9.252;2022-09-16T03:42:40;5.50;;;2.70;;
70733;SDS011;58320;48.804;9.252;2022-09-16T03:45:08;5.40;;;2.70;;
70733;SDS011;58320;48.804;9.252;2022-09-16T03:47:44;5.72;;;2.80;;
70733;SDS011;58320;48.804;9.252;2022-09-16T03:50:13;7.80;;;3.42;;
70733;SDS011;58320;48.804;9.252;2022-09-16T03:52:40;6.20;;;2.83;;
70733;SDS011;58320;48.804;9.252;2022-09-16T03:55:06;5.53;;;2.83;;
70733;SDS011;58320;48.804;9.252;2022-09-16T03:57:34;4.80;;;2.50;;
70733;SDS011;58320;48.804;9.252;2022-09-16T04:00:02;5.88;;;2.80;;
70733;SDS011;58320;48.804;9.252;2022-09-16T04:02:30;3.75;;;2.22;;
70733;SDS011;58320;48.804;9.252;2022-09-16T04:04:56;4.68;;;2.30;;
70733;SDS011;58320;48.804;9.252;2022-09-16T04:07:22;7.20;;;3.30;;
70733;SDS011;58320;48.804;9.252;2022-09-16T04:09:48;6.72;;;3.00;;
70733;SDS011;58320;48.804;9.252;2022-09-16T04:12:14;4.33;;;2.73;;
70733;SDS011;58320;48.804;9.252;2022-09-16T04:14:40;5.07;;;2.50;;
70733;SDS011;58320;48.804;9.252;2022-09-16T04:17:05;5.07;;;2.38;;
70733;SDS011;58320;48.804;9.252;2022-09-16T04:19:31;5.63;;;2.87;;
70733;SDS011;58320;48.804;9.252;2022-09-16T04:21:57;9.32;;;3.10;;
70733;SDS011;58320;48.804;9.252;2022-09-16T04:24:23;5.53;;;2.70;;
70733;SDS011;58320;48.804;9.252;2022-09-16T04:26:49;5.93;;;2.30;;
70733;SDS011;58320;48.804;9.252;2022-09-16T04:29:14;6.35;;;2.42;;
70733;SDS011;58320;48.804;9.252;2022-09-16T04:31:41;6.10;;;2.50;;
70733;SDS011;58320;48.804;9.252;2022-09-16T04:34:08;7.43;;;3.00;;
70733;SDS011;58320;48.804;9.252;2022-09-16T04:36:37;3.90;;;2.55;;
70733;SDS011;58320;48.804;9.252;2022-09-16T04:39:03;6.53;;;3.10;;
70733;SDS011;58320;48.804;9.252;2022-09-16T04:41:30;4.32;;;2.75;;
70733;SDS011;58320;48.804;9.252;2022-09-16T04:43:57;5.75;;;3.00;;
70733;SDS011;58320;48.804;9.252;2022-09-16T04:46:25;4.70;;;2.80;;
70733;SDS011;58320;48.804;9.252;2022-09-16T04:48:53;8.02;;;3.25;;
70733;SDS011;58320;48.804;9.252;2022-09-16T04:51:21;6.22;;;2.97;;
70733;SDS011;58320;48.804;9.252;2022-09-16T04:53:48;5.80;;;2.67;;
70733;SDS011;58320;48.804;9.252;2022-09-16T04:56:15;4.60;;;3.00;;
70733;SDS011;58320;48.804;9.252;2022-09-16T04:58:45;6.87;;;3.33;;
70733;SDS011;58320;48.804;9.252;2022-09-16T05:01:21;7.22;;;2.90;;
70733;SDS011;58320;48.804;9.252;2022-09-16T05:03:50;6.93;;;3.20;;
70733;SDS011;58320;48.804;9.252;2022-09-16T05:06:19;5.03;;;2.72;;
70733;SDS011;58320;48.804;9.252;2022-09-16T05:08:51;10.27;;;3.20;;
70733;SDS011;58320;48.804;9.252;2022-09-16T05:11:19;8.73;;;3.87;;
70733;SDS011;58320;48.804;9.252;2022-09-16T05:16:31;5.20;;;2.72;;
70733;SDS011;58320;48.804;9.252;2022-09-16T05:18:58;7.38;;;3.67;;
70733;SDS011;58320;48.804;9.252;2022-09-16T05:21:26;8.07;;;3.75;;
70733;SDS011;58320;48.804;9.252;2022-09-16T05:23:53;7.60;;;3.50;;
70733;SDS011;58320;48.804;9.252;2022-09-16T05:26:21;6.28;;;3.70;;
70733;SDS011;58320;48.804;9.252;2022-09-16T05:28:50;5.82;;;2.92;;
70733;SDS011;58320;48.804;9.252;2022-09-16T05:31:17;6.07;;;3.10;;
70733;SDS011;58320;48.804;9.252;2022-09-16T05:33:58;6.32;;;3.42;;
70733;SDS011;58320;48.804;9.252;2022-09-16T05:36:29;7.10;;;3.27;;
70733;SDS011;58320;48.804;9.252;2022-09-16T05:38:57;10.38;;;4.10;;
70733;SDS011;58320;48.804;9.252;2022-09-16T05:41:23;7.18;;;3.75;;
70733;SDS011;58320;48.804;9.252;2022-09-16T05:43:50;7.95;;;3.90;;
70733;SDS011;58320;48.804;9.252;2022-09-16T05:46:17;9.40;;;3.83;;
70733;SDS011;58320;48.804;9.252;2022-09-16T05:48:45;6.70;;;3.63;;
70733;SDS011;58320;48.804;9.252;2022-09-16T05:51:14;6.90;;;4.20;;
70733;SDS011;58320;48.804;9.252;2022-09-16T05:53:42;8.10;;;4.30;;
70733;SDS011;58320;48.804;9.252;2022-09-16T05:56:11;6.95;;;3.50;;
70733;SDS011;58320;48.804;9.252;2022-09-16T05:58:46;8.30;;;3.83;;
70733;SDS011;58320;48.804;9.252;2022-09-16T06:03:41;6.30;;;4.30;;
70733;SDS011;58320;48.804;9.252;2022-09-16T06:06:42;7.55;;;3.58;;
70733;SDS011;58320;48.804;9.252;2022-09-16T06:09:06;9.35;;;5.03;;
70733;SDS011;58320;48.804;9.252;2022-09-16T06:11:38;6.15;;;3.65;;
70733;SDS011;58320;48.804;9.252;2022-09-16T06:14:07;7.53;;;4.07;;
70733;SDS011;58320;48.804;9.252;2022-09-16T06:16:34;7.55;;;4.50;;
70733;SDS011;58320;48.804;9.252;2022-09-16T06:19:01;7.88;;;4.22;;
70733;SDS011;58320;48.804;9.252;2022-09-16T06:21:30;7.15;;;3.83;;
70733;SDS011;58320;48.804;9.252;2022-09-16T06:23:56;6.85;;;3.63;;
70733;SDS011;58320;48.804;9.252;2022-09-16T06:26:23;9.67;;;3.90;;
70733;SDS011;58320;48.804;9.252;2022-09-16T06:28:50;5.85;;;3.20;;
70733;SDS011;58320;48.804;9.252;2022-09-16T06:31:25;6.07;;;3.00;;
70733;SDS011;58320;48.804;9.252;2022-09-16T06:33:52;10.85;;;4.10;;
70733;SDS011;58320;48.804;9.252;2022-09-16T06:36:22;8.27;;;3.53;;
70733;SDS011;58320;48.804;9.252;2022-09-16T06:38:50;8.55;;;3.40;;
70733;SDS011;58320;48.804;9.252;2022-09-16T06:41:17;8.70;;;4.00;;
70733;SDS011;58320;48.804;9.252;2022-09-16T06:43:44;8.90;;;3.92;;
70733;SDS011;58320;48.804;9.252;2022-09-16T06:46:13;7.45;;;3.80;;
70733;SDS011;58320;48.804;9.252;2022-09-16T06:48:43;8.73;;;4.20;;
70733;SDS011;58320;48.804;9.252;2022-09-16T06:51:16;7.32;;;3.70;;
70733;SDS011;58320;48.804;9.252;2022-09-16T06:53:50;7.20;;;3.80;;
70733;SDS011;58320;48.804;9.252;2022-09-16T06:56:18;9.52;;;4.18;;
70733;SDS011;58320;48.804;9.252;2022-09-16T06:58:46;9.30;;;4.18;;
70733;SDS011;58320;48.804;9.252;2022-09-16T07:01:19;7.83;;;4.20;;
70733;SDS011;58320;48.804;9.252;2022-09-16T07:03:51;8.73;;;4.03;;
70733;SDS011;58320;48.804;9.252;2022-09-16T07:06:18;7.88;;;3.70;;
70733;SDS011;58320;48.804;9.252;2022-09-16T07:08:46;9.95;;;3.67;;
70733;SDS011;58320;48.804;9.252;2022-09-16T07:11:14;7.07;;;3.22;;
70733;SDS011;58320;48.804;9.252;2022-09-16T07:13:43;5.43;;;3.47;;
70733;SDS011;58320;48.804;9.252;2022-09-16T07:16:12;10.68;;;4.18;;
70733;SDS011;58320;48.804;9.252;2022-09-16T07:18:41;7.55;;;3.75;;
70733;SDS011;58320;48.804;9.252;2022-09-16T07:23:39;8.68;;;3.55;;
70733;SDS011;58320;48.804;9.252;2022-09-16T07:26:16;6.70;;;3.87;;
70733;SDS011;58320;48.804;9.252;2022-09-16T07:28:47;10.57;;;4.10;;
70733;SDS011;58320;48.804;9.252;2022-09-16T07:31:18;6.82;;;3.42;;
70733;SDS011;58320;48.804;9.252;2022-09-16T07:33:49;7.95;;;3.67;;
70733;SDS011;58320;48.804;9.252;2022-09-16T07:36:17;6.40;;;3.30;;
70733;SDS011;58320;48.804;9.252;2022-09-16T07:38:48;7.20;;;3.47;;
70733;SDS011;58320;48.804;9.252;2022-09-16T07:41:17;8.57;;;3.75;;
70733;SDS011;58320;48.804;9.252;2022-09-16T07:43:45;7.85;;;4.22;;
70733;SDS011;58320;48.804;9.252;2022-09-16T07:46:12;6.25;;;4.05;;
70733;SDS011;58320;48.804;9.252;2022-09-16T07:48:47;7.57;;;4.07;;
70733;SDS011;58320;48.804;9.252;2022-09-16T07:51:15;8.87;;;4.70;;
70733;SDS011;58320;48.804;9.252;2022-09-16T07:53:46;6.80;;;3.85;;
70733;SDS011;58320;48.804;9.252;2022-09-16T07:56:18;5.55;;;3.65;;
70733;SDS011;58320;48.804;9.252;2022-09-16T07:58:46;5.90;;;3.38;;
70733;SDS011;58320;48.804;9.252;2022-09-16T08:01:14;6.65;;;3.40;;
70733;SDS011;58320;48.804;9.252;2022-09-16T08:03:41;8.00;;;3.67;;
70733;SDS011;58320;48.804;9.252;2022-09-16T08:06:09;8.20;;;3.63;;
70733;SDS011;58320;48.804;9.252;2022-09-16T08:08:39;9.48;;;3.83;;
70733;SDS011;58320;48.804;9.252;2022-09-16T08:11:05;7.25;;;3.78;;
70733;SDS011;58320;48.804;9.252;2022-09-16T08:13:33;7.32;;;3.63;;
70733;SDS011;58320;48.804;9.252;2022-09-16T08:16:02;8.00;;;3.80;;
70733;SDS011;58320;48.804;9.252;2022-09-16T08:18:31;7.05;;;3.35;;
70733;SDS011;58320;48.804;9.252;2022-09-16T08:20:58;8.20;;;3.30;;
70733;SDS011;58320;48.804;9.252;2022-09-16T08:23:37;6.72;;;3.63;;
70733;SDS011;58320;48.804;9.252;2022-09-16T08:26:04;6.53;;;3.65;;
70733;SDS011;58320;48.804;9.252;2022-09-16T08:28:32;6.70;;;3.30;;
70733;SDS011;58320;48.804;9.252;2022-09-16T08:31:00;4.85;;;2.50;;
70733;SDS011;58320;48.804;9.252;2022-09-16T08:33:26;5.40;;;2.75;;
70733;SDS011;58320;48.804;9.252;2022-09-16T08:36:13;9.23;;;3.72;;
70733;SDS011;58320;48.804;9.252;2022-09-16T08:38:44;5.88;;;2.90;;
70733;SDS011;58320;48.804;9.252;2022-09-16T08:46:55;6.65;;;3.38;;
70733;SDS011;58320;48.804;9.252;2022-09-16T08:49:33;6.05;;;3.53;;
70733;SDS011;58320;48.804;9.252;2022-09-16T08:52:09;7.78;;;3.70;;
70733;SDS011;58320;48.804;9.252;2022-09-16T08:54:59;8.90;;;4.33;;
70733;SDS011;58320;48.804;9.252;2022-09-16T08:57:31;9.15;;;3.80;;
70733;SDS011;58320;48.804;9.252;2022-09-16T09:00:05;6.55;;;3.95;;
70733;SDS011;58320;48.804;9.252;2022-09-16T09:05:50;10.75;;;4.95;;
70733;SDS011;58320;48.804;9.252;2022-09-16T09:11:34;7.60;;;4.47;;
70733;SDS011;58320;48.804;9.252;2022-09-16T09:26:01;7.40;;;4.35;;
70733;SDS011;58320;48.804;9.252;2022-09-16T09:34:56;7.13;;;4.15;;
70733;SDS011;58320;48.804;9.252;2022-09-16T09:43:12;7.45;;;3.95;;
70733;SDS011;58320;48.804;9.252;2022-09-16T09:48:53;9.20;;;4.25;;
70733;SDS011;58320;48.804;9.252;2022-09-16T09:51:52;6.03;;;3.40;;
70733;SDS011;58320;48.804;9.252;2022-09-16T09:54:26;8.25;;;4.10;;
70733;SDS011;58320;48.804;9.252;2022-09-16T09:56:58;6.68;;;3.53;;
70733;SDS011;58320;48.804;9.252;2022-09-16T10:02:33;10.38;;;3.30;;
70733;SDS011;58320;48.804;9.252;2022-09-16T10:05:03;5.37;;;3.30;;
70733;SDS011;58320;48.804;9.252;2022-09-16T10:07:32;6.43;;;3.40;;
70733;SDS011;58320;48.804;9.252;2022-09-16T10:10:13;7.90;;;3.17;;
70733;SDS011;58320;48.804;9.252;2022-09-16T10:12:44;8.93;;;3.45;;
70733;SDS011;58320;48.804;9.252;2022-09-16T10:18:12;6.93;;;3.40;;
70733;SDS011;58320;48.804;9.252;2022-09-16T10:21:02;7.07;;;3.60;;
70733;SDS011;58320;48.804;9.252;2022-09-16T10:23:34;6.30;;;3.28;;
70733;SDS011;58320;48.804;9.252;2022-09-16T10:26:03;5.50;;;3.03;;
70733;SDS011;58320;48.804;9.252;2022-09-16T10:31:28;6.97;;;3.05;;
70733;SDS011;58320;48.804;9.252;2022-09-16T10:34:02;6.72;;;3.92;;
70733;SDS011;58320;48.804;9.252;2022-09-16T10:36:58;5.22;;;3.42;;
70733;SDS011;58320;48.804;9.252;2022-09-16T10:39:53;5.05;;;3.10;;
70733;SDS011;58320;48.804;9.252;2022-09-16T10:42:22;6.83;;;3.87;;
70733;SDS011;58320;48.804;9.252;2022-09-16T10:44:51;4.50;;;2.90;;
70733;SDS011;58320;48.804;9.252;2022-09-16T10:47:22;5.97;;;3.20;;
70733;SDS011;58320;48.804;9.252;2022-09-16T10:49:53;7.85;;;3.63;;
70733;SDS011;58320;48.804;9.252;2022-09-16T10:54:51;5.30;;;3.03;;
70733;SDS011;58320;48.804;9.252;2022-09-16T10:57:25;8.00;;;3.58;;
70733;SDS011;58320;48.804;9.252;2022-09-16T11:08:18;6.73;;;3.17;;
70733;SDS011;58320;48.804;9.252;2022-09-16T11:11:09;7.05;;;3.50;;
70733;SDS011;58320;48.804;9.252;2022-09-16T11:24:46;5.78;;;3.00;;
70733;SDS011;58320;48.804;9.252;2022-09-16T11:37:31;7.67;;;3.20;;
70733;SDS011;58320;48.804;9.252;2022-09-16T11:42:47;6.57;;;2.80;;
70733;SDS011;58320;48.804;9.252;2022-09-16T11:45:32;5.75;;;2.60;;
70733;SDS011;58320;48.804;9.252;2022-09-16T11:57:28;5.43;;;2.65;;
70733;SDS011;58320;48.804;9.252;2022-09-16T12:00:02;4.30;;;2.20;;
70733;SDS011;58320;48.804;9.252;2022-09-16T12:02:36;8.48;;;2.80;;
70733;SDS011;58320;48.804;9.252;2022-09-16T12:08:09;5.88;;;2.38;;
70733;SDS011;58320;48.804;9.252;2022-09-16T12:13:41;6.88;;;2.10;;
70733;SDS011;58320;48.804;9.252;2022-09-16T12:16:32;4.15;;;1.92;;
70733;SDS011;58320;48.804;9.252;2022-09-16T12:19:14;3.93;;;1.57;;
70733;SDS011;58320;48.804;9.252;2022-09-16T12:25:07;3.42;;;1.55;;
70733;SDS011;58320;48.804;9.252;2022-09-16T12:30:23;4.00;;;1.70;;
70733;SDS011;58320;48.804;9.252;2022-09-16T12:33:05;3.63;;;1.70;;
70733;SDS011;58320;48.804;9.252;2022-09-16T12:35:55;4.97;;;2.05;;
70733;SDS011;58320;48.804;9.252;2022-09-16T12:38:39;4.28;;;1.73;;
70733;SDS011;58320;48.804;9.252;2022-09-16T13:03:48;5.88;;;1.90;;
70733;SDS011;58320;48.804;9.252;2022-09-16T13:06:26;4.28;;;1.80;;
70733;SDS011;58320;48.804;9.252;2022-09-16T13:08:57;7.23;;;1.70;;
70733;SDS011;58320;48.804;9.252;2022-09-16T13:11:57;3.58;;;1.50;;
70733;SDS011;58320;48.804;9.252;2022-09-16T13:14:34;3.47;;;1.48;;
70733;SDS011;58320;48.804;9.252;2022-09-16T13:17:13;5.25;;;1.80;;
70733;SDS011;58320;48.804;9.252;2022-09-16T13:19:48;4.27;;;2.20;;
70733;SDS011;58320;48.804;9.252;2022-09-16T13:22:19;5.23;;;1.80;;
70733;SDS011;58320;48.804;9.252;2022-09-16T13:27:31;5.72;;;1.75;;
70733;SDS011;58320;48.804;9.252;2022-09-16T13:32:39;3.50;;;1.85;;
70733;SDS011;58320;48.804;9.252;2022-09-16T13:35:33;5.50;;;1.70;;
70733;SDS011;58320;48.804;9.252;2022-09-16T13:38:10;3.75;;;1.70;;
70733;SDS011;58320;48.804;9.252;2022-09-16T13:40:58;4.45;;;1.67;;
70733;SDS011;58320;48.804;9.252;2022-09-16T13:46:11;3.55;;;1.73;;
70733;SDS011;58320;48.804;9.252;2022-09-16T13:51:28;4.68;;;2.00;;
70733;SDS011;58320;48.804;9.252;2022-09-16T13:54:04;3.85;;;2.00;;
70733;SDS011;58320;48.804;9.252;2022-09-16T13:57:09;5.40;;;2.03;;
70733;SDS011;58320;48.804;9.252;2022-09-16T13:59:50;8.65;;;1.98;;
70733;SDS011;58320;48.804;9.252;2022-09-16T14:13:37;4.57;;;2.00;;
70733;SDS011;58320;48.804;9.252;2022-09-16T14:16:32;4.60;;;2.00;;
70733;SDS011;58320;48.804;9.252;2022-09-16T14:19:05;4.50;;;2.00;;
70733;SDS011;58320;48.804;9.252;2022-09-16T14:24:36;5.38;;;2.28;;
70733;SDS011;58320;48.804;9.252;2022-09-16T14:29:58;4.33;;;1.90;;
70733;SDS011;58320;48.804;9.252;2022-09-16T14:32:30;4.05;;;1.85;;
70733;SDS011;58320;48.804;9.252;2022-09-16T14:35:02;5.13;;;1.95;;
70733;SDS011;58320;48.804;9.252;2022-09-16T14:37:34;3.63;;;1.77;;
70733;SDS011;58320;48.804;9.252;2022-09-16T14:40:04;3.63;;;1.55;;
70733;SDS011;58320;48.804;9.252;2022-09-16T14:43:22;3.93;;;1.73;;
70733;SDS011;58320;48.804;9.252;2022-09-16T14:45:38;6.43;;;1.83;;
70733;SDS011;58320;48.804;9.252;2022-09-16T14:48:15;4.35;;;1.80;;
70733;SDS011;58320;48.804;9.252;2022-09-16T14:50:46;4.00;;;1.65;;
70733;SDS011;58320;48.804;9.252;2022-09-16T14:53:25;5.05;;;1.80;;
70733;SDS011;58320;48.804;9.252;2022-09-16T14:55:56;4.23;;;1.50;;
70733;SDS011;58320;48.804;9.252;2022-09-16T14:58:24;4.30;;;1.67;;
70733;SDS011;58320;48.804;9.252;2022-09-16T15:03:59;4.55;;;2.10;;
70733;SDS011;58320;48.804;9.252;2022-09-16T15:06:28;6.68;;;2.00;;
70733;SDS011;58320;48.804;9.252;2022-09-16T15:09:01;3.40;;;1.60;;
70733;SDS011;58320;48.804;9.252;2022-09-16T15:11:44;3.38;;;1.75;;
70733;SDS011;58320;48.804;9.252;2022-09-16T15:14:17;5.13;;;1.90;;
70733;SDS011;58320;48.804;9.252;2022-09-16T15:16:45;5.32;;;1.60;;
70733;SDS011;58320;48.804;9.252;2022-09-16T15:19:28;5.78;;;1.80;;
70733;SDS011;58320;48.804;9.252;2022-09-16T15:22:03;3.43;;;1.80;;
70733;SDS011;58320;48.804;9.252;2022-09-16T15:24:35;6.07;;;2.00;;
70733;SDS011;58320;48.804;9.252;2022-09-16T15:27:05;5.50;;;1.90;;
70733;SDS011;58320;48.804;9.252;2022-09-16T15:29:32;6.38;;;1.80;;
70733;SDS011;58320;48.804;9.252;2022-09-16T15:32:23;3.30;;;1.73;;
70733;SDS011;58320;48.804;9.252;2022-09-16T15:37:37;3.05;;;1.50;;
70733;SDS011;58320;48.804;9.252;2022-09-16T15:42:47;5.75;;;2.05;;
70733;SDS011;58320;48.804;9.252;2022-09-16T15:45:38;6.47;;;1.90;;
70733;SDS011;58320;48.804;9.252;2022-09-16T15:48:07;4.65;;;1.80;;
70733;SDS011;58320;48.804;9.252;2022-09-16T15:50:52;5.10;;;1.80;;
70733;SDS011;58320;48.804;9.252;2022-09-16T15:56:37;3.88;;;1.40;;
70733;SDS011;58320;48.804;9.252;2022-09-16T15:59:02;3.67;;;1.50;;
70733;SDS011;58320;48.804;9.252;2022-09-16T16:01:49;3.90;;;1.70;;
70733;SDS011;58320;48.804;9.252;2022-09-16T16:04:25;4.95;;;1.90;;
70733;SDS011;58320;48.804;9.252;2022-09-16T16:07:01;6.43;;;1.73;;
70733;SDS011;58320;48.804;9.252;2022-09-16T16:09:34;3.20;;;1.50;;
70733;SDS011;58320;48.804;9.252;2022-09-16T16:12:08;5.43;;;1.50;;
70733;SDS011;58320;48.804;9.252;2022-09-16T16:14:37;4.30;;;1.75;;
70733;SDS011;58320;48.804;9.252;2022-09-16T16:19:45;4.20;;;1.90;;
70733;SDS011;58320;48.804;9.252;2022-09-16T16:22:13;3.60;;;1.75;;
70733;SDS011;58320;48.804;9.252;2022-09-16T16:24:40;4.43;;;1.67;;
70733;SDS011;58320;48.804;9.252;2022-09-16T16:27:06;3.88;;;1.50;;
70733;SDS011;58320;48.804;9.252;2022-09-16T16:29:32;6.88;;;1.83;;
70733;SDS011;58320;48.804;9.252;2022-09-16T16:34:36;4.35;;;1.77;;
70733;SDS011;58320;48.804;9.252;2022-09-16T16:37:07;3.40;;;1.60;;
70733;SDS011;58320;48.804;9.252;2022-09-16T16:39:36;5.07;;;1.80;;
70733;SDS011;58320;48.804;9.252;2022-09-16T16:42:02;3.90;;;1.85;;
70733;SDS011;58320;48.804;9.252;2022-09-16T16:44:29;5.07;;;2.00;;
70733;SDS011;58320;48.804;9.252;2022-09-16T16:46:56;5.65;;;2.10;;
70733;SDS011;58320;48.804;9.252;2022-09-16T16:49:22;4.53;;;1.77;;
70733;SDS011;58320;48.804;9.252;2022-09-16T16:51:49;5.75;;;1.95;;
70733;SDS011;58320;48.804;9.252;2022-09-16T16:54:18;5.05;;;2.10;;
70733;SDS011;58320;48.804;9.252;2022-09-16T16:56:46;5.22;;;1.70;;
70733;SDS011;58320;48.804;9.252;2022-09-16T16:59:13;4.50;;;1.70;;
70733;SDS011;58320;48.804;9.252;2022-09-16T17:01:40;4.47;;;1.70;;
70733;SDS011;58320;48.804;9.252;2022-09-16T17:04:06;4.55;;;1.90;;
70733;SDS011;58320;48.804;9.252;2022-09-16T17:06:33;5.68;;;1.77;;
70733;SDS011;58320;48.804;9.252;2022-09-16T17:09:01;3.10;;;1.45;;
70733;SDS011;58320;48.804;9.252;2022-09-16T17:11:28;5.07;;;1.60;;
70733;SDS011;58320;48.804;9.252;2022-09-16T17:13:56;3.13;;;1.40;;
70733;SDS011;58320;48.804;9.252;2022-09-16T17:16:26;3.92;;;1.20;;
70733;SDS011;58320;48.804;9.252;2022-09-16T17:18:53;3.95;;;1.45;;
70733;SDS011;58320;48.804;9.252;2022-09-16T17:21:26;3.22;;;1.70;;
70733;SDS011;58320;48.804;9.252;2022-09-16T17:23:55;5.20;;;1.20;;
70733;SDS011;58320;48.804;9.252;2022-09-16T17:26:22;2.63;;;1.10;;
70733;SDS011;58320;48.804;9.252;2022-09-16T17:28:49;4.13;;;1.50;;
70733;SDS011;58320;48.804;9.252;2022-09-16T17:31:18;4.35;;;1.30;;
70733;SDS011;58320;48.804;9.252;2022-09-16T17:33:57;3.47;;;1.67;;
70733;SDS011;58320;48.804;9.252;2022-09-16T17:36:27;8.15;;;1.65;;
70733;SDS011;58320;48.804;9.252;2022-09-16T17:39:04;4.60;;;1.50;;
70733;SDS011;58320;48.804;9.252;2022-09-16T17:41:33;3.15;;;1.60;;
70733;SDS011;58320;48.804;9.252;2022-09-16T17:44:03;5.05;;;1.52;;
70733;SDS011;58320;48.804;9.252;2022-09-16T17:46:31;6.57;;;2.08;;
70733;SDS011;58320;48.804;9.252;2022-09-16T17:48:58;5.13;;;2.17;;
70733;SDS011;58320;48.804;9.252;2022-09-16T17:51:29;4.90;;;2.53;;
70733;SDS011;58320;48.804;9.252;2022-09-16T17:53:57;3.70;;;2.20;;
70733;SDS011;58320;48.804;9.252;2022-09-16T17:56:23;5.43;;;2.28;;
70733;SDS011;58320;48.804;9.252;2022-09-16T17:58:50;4.40;;;1.77;;
70733;SDS011;58320;48.804;9.252;2022-09-16T18:01:18;4.63;;;2.25;;
70733;SDS011;58320;48.804;9.252;2022-09-16T18:03:49;5.40;;;2.30;;
70733;SDS011;58320;48.804;9.252;2022-09-16T18:06:19;5.25;;;2.33;;
70733;SDS011;58320;48.804;9.252;2022-09-16T18:08:51;4.88;;;2.65;;
70733;SDS011;58320;48.804;9.252;2022-09-16T18:11:18;6.15;;;3.08;;
70733;SDS011;58320;48.804;9.252;2022-09-16T18:13:45;7.43;;;3.17;;
70733;SDS011;58320;48.804;9.252;2022-09-16T18:16:13;5.23;;;3.03;;
70733;SDS011;58320;48.804;9.252;2022-09-16T18:18:42;5.03;;;2.90;;
70733;SDS011;58320;48.804;9.252;2022-09-16T18:21:09;7.90;;;2.55;;
70733;SDS011;58320;48.804;9.252;2022-09-16T18:23:39;5.45;;;2.78;;
70733;SDS011;58320;48.804;9.252;2022-09-16T18:26:11;8.38;;;3.20;;
70733;SDS011;58320;48.804;9.252;2022-09-16T18:28:39;6.37;;;3.07;;
70733;SDS011;58320;48.804;9.252;2022-09-16T18:31:12;7.68;;;2.72;;
70733;SDS011;58320;48.804;9.252;2022-09-16T18:33:40;6.57;;;3.25;;
70733;SDS011;58320;48.804;9.252;2022-09-16T18:36:07;8.45;;;3.20;;
70733;SDS011;58320;48.804;9.252;2022-09-16T18:38:39;6.68;;;3.28;;
70733;SDS011;58320;48.804;9.252;2022-09-16T18:41:09;6.20;;;2.97;;
70733;SDS011;58320;48.804;9.252;2022-09-16T18:43:42;6.40;;;3.63;;
70733;SDS011;58320;48.804;9.252;2022-09-16T18:46:20;5.50;;;3.17;;
70733;SDS011;58320;48.804;9.252;2022-09-16T18:48:49;4.80;;;3.05;;
70733;SDS011;58320;48.804;9.252;2022-09-16T18:53:49;6.60;;;3.07;;
70733;SDS011;58320;48.804;9.252;2022-09-16T18:56:23;5.68;;;3.20;;
70733;SDS011;58320;48.804;9.252;2022-09-16T18:58:50;4.95;;;2.33;;
70733;SDS011;58320;48.804;9.252;2022-09-16T19:03:48;5.22;;;2.38;;
70733;SDS011;58320;48.804;9.252;2022-09-16T19:06:15;5.20;;;2.10;;
70733;SDS011;58320;48.804;9.252;2022-09-16T19:08:41;4.28;;;2.30;;
70733;SDS011;58320;48.804;9.252;2022-09-16T19:11:08;6.15;;;2.08;;